createdAt,value
2019-03-28T00:01:31.985Z,27.93
2019-03-28T00:04:03.119Z,30.10
2019-03-28T00:06:33.150Z,30.97
2019-03-28T00:09:03.236Z,28.70
2019-03-28T00:11:33.218Z,27.37
2019-03-28T00:14:03.051Z,27.27
2019-03-28T00:16:33.134Z,33.60
2019-03-28T00:19:07.639Z,31.07
2019-03-28T00:21:40.474Z,28.80
2019-03-28T00:24:15.815Z,31.17
2019-03-28T00:26:46.635Z,30.83
2019-03-28T00:29:18.929Z,32.83
2019-03-28T00:31:49.800Z,31.60
2019-03-28T00:34:20.270Z,27.60
2019-03-28T00:36:51.716Z,31.00
2019-03-28T00:39:21.778Z,30.27
2019-03-28T00:41:51.631Z,29.13
2019-03-28T00:44:22.614Z,30.10
2019-03-28T00:46:54.597Z,30.03
2019-03-28T00:49:28.896Z,27.67
2019-03-28T00:52:00.551Z,26.87
2019-03-28T00:54:31.562Z,33.13
2019-03-28T00:57:02.644Z,31.07
2019-03-28T00:59:32.838Z,30.17
2019-03-28T01:02:02.800Z,30.57
2019-03-28T01:04:32.894Z,27.70
2019-03-28T01:07:02.774Z,30.93
2019-03-28T01:09:32.738Z,32.33
2019-03-28T01:12:02.644Z,31.27
2019-03-28T01:14:36.403Z,31.73
2019-03-28T01:17:06.309Z,29.37
2019-03-28T01:19:36.299Z,29.00
2019-03-28T01:22:09.250Z,30.33
2019-03-28T01:24:39.266Z,30.73
2019-03-28T01:27:09.417Z,34.00
2019-03-28T01:29:47.451Z,29.63
2019-03-28T01:32:17.382Z,31.70
2019-03-28T01:34:47.534Z,29.57
2019-03-28T01:37:17.403Z,28.97
2019-03-28T01:39:51.013Z,29.60
2019-03-28T01:42:20.976Z,29.70
2019-03-28T01:44:54.011Z,31.70
2019-03-28T01:47:23.837Z,30.30
2019-03-28T01:49:53.912Z,28.40
2019-03-28T01:52:23.818Z,29.60
2019-03-28T01:54:53.856Z,28.97
2019-03-28T01:57:23.774Z,28.23
2019-03-28T01:59:53.839Z,30.70
2019-03-28T02:02:23.688Z,31.33
2019-03-28T02:04:53.711Z,29.60
2019-03-28T02:07:25.253Z,27.70
2019-03-28T02:09:55.508Z,27.23
2019-03-28T02:12:25.770Z,30.57
2019-03-28T02:14:55.930Z,27.80
2019-03-28T02:17:25.738Z,25.70
2019-03-28T02:19:55.781Z,28.77
2019-03-28T02:22:25.777Z,30.07
2019-03-28T02:24:55.841Z,29.40
2019-03-28T02:27:26.091Z,28.33
2019-03-28T02:29:56.128Z,30.37
2019-03-28T02:32:26.131Z,33.83
2019-03-28T02:34:56.105Z,29.57
2019-03-28T02:37:26.119Z,30.17
2019-03-28T02:39:56.047Z,29.03
2019-03-28T02:42:25.936Z,32.03
2019-03-28T02:44:56.023Z,33.37
2019-03-28T02:47:25.945Z,33.03
2019-03-28T02:49:56.250Z,33.60
2019-03-28T02:52:26.164Z,30.47
2019-03-28T02:54:56.109Z,30.50
2019-03-28T02:57:40.066Z,32.73
2019-03-28T02:59:57.495Z,28.00
2019-03-28T03:02:27.555Z,29.87
2019-03-28T03:04:57.440Z,29.37
2019-03-28T03:07:27.490Z,28.07
2019-03-28T03:09:57.436Z,29.70
2019-03-28T03:12:27.892Z,30.83
2019-03-28T03:14:57.954Z,31.73
2019-03-28T03:17:28.040Z,31.63
2019-03-28T03:19:57.876Z,32.30
2019-03-28T03:22:28.628Z,29.43
2019-03-28T03:24:58.806Z,30.20
2019-03-28T03:27:28.767Z,32.10
2019-03-28T03:29:58.696Z,34.27
2019-03-28T03:32:28.843Z,30.23
2019-03-28T03:35:02.286Z,29.77
2019-03-28T03:37:32.557Z,28.73
2019-03-28T03:40:03.454Z,30.30
2019-03-28T03:42:34.861Z,31.30
2019-03-28T03:45:05.829Z,30.80
2019-03-28T03:47:38.211Z,31.80
2019-03-28T03:50:10.031Z,29.10
2019-03-28T03:52:41.671Z,30.70
2019-03-28T03:55:13.338Z,29.60
2019-03-28T03:57:47.564Z,29.70
2019-03-28T04:00:21.707Z,28.67
2019-03-28T04:02:51.654Z,33.73
2019-03-28T04:05:21.944Z,29.43
2019-03-28T04:07:52.619Z,28.87
2019-03-28T04:10:22.556Z,27.50
2019-03-28T04:12:52.440Z,31.93
2019-03-28T04:15:22.424Z,29.57
2019-03-28T04:17:52.377Z,29.93
2019-03-28T04:20:22.390Z,32.50
2019-03-28T04:22:52.823Z,32.30
2019-03-28T04:25:22.779Z,29.80
2019-03-28T04:27:52.673Z,32.20
2019-03-28T04:30:22.848Z,29.70
2019-03-28T04:32:52.903Z,31.57
2019-03-28T04:35:22.868Z,28.17
2019-03-28T04:37:52.755Z,28.63
2019-03-28T04:40:22.725Z,28.67
2019-03-28T04:42:53.828Z,29.43
2019-03-28T04:45:23.872Z,26.47
2019-03-28T04:47:53.742Z,29.00
2019-03-28T04:50:23.737Z,31.13
2019-03-28T04:52:54.024Z,29.53
2019-03-28T04:55:24.038Z,31.40
2019-03-28T04:57:53.913Z,29.37
2019-03-28T05:00:24.233Z,30.50
2019-03-28T05:02:54.168Z,29.37
2019-03-28T05:05:24.507Z,31.83
2019-03-28T05:07:54.861Z,29.17
2019-03-28T05:10:25.015Z,30.57
2019-03-28T05:12:55.330Z,29.53
2019-03-28T05:15:28.268Z,30.03
2019-03-28T05:17:57.920Z,29.97
2019-03-28T05:20:27.971Z,29.27
2019-03-28T05:22:58.018Z,28.80
2019-03-28T05:25:27.933Z,31.27
2019-03-28T05:27:57.943Z,25.03
2019-03-28T05:30:28.064Z,27.90
2019-03-28T05:32:59.984Z,30.10
2019-03-28T05:35:31.174Z,28.87
2019-03-28T05:38:01.102Z,29.97
2019-03-28T05:40:33.589Z,27.57
2019-03-28T05:43:03.591Z,31.93
2019-03-28T05:45:33.490Z,31.03
2019-03-28T05:48:03.438Z,29.93
2019-03-28T05:50:33.411Z,36.63
2019-03-28T05:53:04.256Z,32.27
2019-03-28T05:55:34.507Z,32.43
2019-03-28T05:58:05.924Z,31.70
2019-03-28T06:00:38.998Z,29.53
2019-03-28T06:03:11.890Z,34.20
2019-03-28T06:05:43.533Z,29.20
2019-03-28T06:08:13.547Z,28.90
2019-03-28T06:10:43.590Z,30.60
2019-03-28T06:13:15.173Z,31.40
2019-03-28T06:15:49.278Z,33.47
2019-03-28T06:18:20.277Z,29.80
2019-03-28T06:20:55.449Z,28.90
2019-03-28T06:23:25.652Z,32.80
2019-03-28T06:25:55.643Z,28.63
2019-03-28T06:28:25.765Z,31.10
2019-03-28T06:30:56.204Z,29.83
2019-03-28T06:33:26.188Z,29.00
2019-03-28T06:35:56.342Z,26.27
2019-03-28T06:38:26.391Z,28.70
2019-03-28T06:40:57.307Z,31.17
2019-03-28T06:43:27.556Z,32.60
2019-03-28T06:45:57.846Z,30.70
2019-03-28T06:48:27.865Z,29.03
2019-03-28T06:50:57.802Z,30.40
2019-03-28T06:53:27.790Z,29.50
2019-03-28T06:55:57.617Z,31.13
2019-03-28T06:58:28.015Z,30.90
2019-03-28T07:00:57.890Z,36.30
2019-03-28T07:03:28.284Z,33.27
2019-03-28T07:05:58.215Z,28.83
2019-03-28T07:08:28.283Z,31.80
2019-03-28T07:10:58.465Z,29.87
2019-03-28T07:13:28.430Z,34.17
2019-03-28T07:15:58.453Z,28.37
2019-03-28T07:18:29.646Z,31.57
2019-03-28T07:20:59.781Z,37.63
2019-03-28T07:23:29.858Z,34.50
2019-03-28T07:26:00.494Z,31.67
2019-03-28T07:28:30.510Z,33.13
2019-03-28T07:31:00.949Z,33.20
2019-03-28T07:33:31.286Z,32.57
2019-03-28T07:36:01.664Z,28.23
2019-03-28T07:38:31.733Z,27.13
2019-03-28T07:41:01.760Z,28.23
2019-03-28T07:43:31.638Z,26.73
2019-03-28T07:46:01.605Z,28.63
2019-03-28T07:48:32.230Z,27.40
2019-03-28T07:51:02.120Z,26.97
2019-03-28T07:53:33.284Z,27.73
2019-03-28T07:56:04.041Z,25.47
2019-03-28T07:58:35.290Z,28.40
2019-03-28T08:01:05.581Z,25.67
2019-03-28T08:03:40.955Z,27.73
2019-03-28T08:06:13.048Z,28.60
2019-03-28T08:08:46.313Z,27.10
2019-03-28T08:11:16.652Z,26.03
2019-03-28T08:13:46.706Z,26.93
2019-03-28T08:16:16.900Z,28.07
2019-03-28T08:18:48.962Z,24.33
2019-03-28T08:21:27.142Z,27.43
2019-03-28T08:23:57.061Z,26.73
2019-03-28T08:26:30.043Z,25.73
2019-03-28T08:29:01.584Z,27.30
2019-03-28T08:31:31.525Z,28.00
2019-03-28T08:34:02.136Z,26.93
2019-03-28T08:36:36.064Z,25.27
2019-03-28T08:39:07.705Z,27.00
2019-03-28T08:41:41.460Z,28.27
2019-03-28T08:44:11.297Z,24.70
2019-03-28T08:46:42.176Z,22.10
2019-03-28T08:49:12.007Z,23.57
2019-03-28T08:51:45.148Z,26.50
2019-03-28T08:54:15.135Z,25.07
2019-03-28T08:56:45.123Z,20.70
2019-03-28T08:59:15.066Z,27.00
2019-03-28T09:04:33.111Z,25.40
2019-03-28T09:07:03.048Z,20.47
2019-03-28T09:09:41.368Z,21.33
2019-03-28T09:12:11.173Z,20.30
2019-03-28T09:14:50.738Z,20.70
2019-03-28T09:17:23.734Z,20.43
2019-03-28T09:19:52.532Z,19.33
2019-03-28T09:22:23.703Z,23.27
2019-03-28T09:24:54.104Z,21.77
2019-03-28T09:27:24.328Z,22.50
2019-03-28T09:29:55.692Z,20.02
2019-03-28T09:32:25.942Z,22.00
2019-03-28T09:34:57.193Z,19.82
2019-03-28T09:37:27.248Z,18.07
2019-03-28T09:39:57.417Z,18.75
2019-03-28T09:42:27.721Z,23.20
2019-03-28T09:44:57.758Z,19.95
2019-03-28T09:47:27.800Z,20.75
2019-03-28T09:50:00.075Z,20.43
2019-03-28T09:52:30.093Z,20.15
2019-03-28T09:55:01.673Z,22.77
2019-03-28T09:57:31.532Z,17.23
2019-03-28T10:00:01.703Z,17.73
2019-03-28T10:02:31.682Z,18.45
2019-03-28T10:05:03.342Z,22.48
2019-03-28T10:07:34.118Z,18.12
2019-03-28T10:10:04.331Z,22.13
2019-03-28T10:12:34.694Z,20.08
2019-03-28T10:15:06.526Z,18.85
2019-03-28T10:17:38.511Z,18.85
2019-03-28T10:20:09.005Z,19.92
2019-03-28T10:22:42.947Z,16.32
2019-03-28T10:25:16.411Z,20.23
2019-03-28T10:27:46.306Z,16.57
2019-03-28T10:30:16.794Z,22.35
2019-03-28T10:32:46.658Z,18.80
2019-03-28T10:35:27.904Z,17.15
2019-03-28T10:37:58.396Z,18.60
2019-03-28T10:40:28.907Z,19.60
2019-03-28T10:42:59.645Z,17.80
2019-03-28T10:45:29.699Z,15.50
2019-03-28T10:48:01.575Z,16.20
2019-03-28T10:50:40.786Z,20.43
2019-03-28T10:53:03.443Z,19.25
2019-03-28T10:55:33.580Z,20.20
2019-03-28T10:58:17.199Z,20.43
2019-03-28T11:00:43.434Z,17.85
2019-03-28T11:03:15.603Z,19.80
2019-03-28T11:05:45.616Z,18.40
2019-03-28T11:08:16.558Z,17.00
2019-03-28T11:10:47.338Z,18.77
2019-03-28T11:13:18.481Z,22.00
2019-03-28T11:15:48.554Z,19.87
2019-03-28T11:18:18.509Z,20.63
2019-03-28T11:20:48.576Z,19.73
2019-03-28T11:23:20.936Z,19.70
2019-03-28T11:25:51.149Z,17.87
2019-03-28T11:28:23.425Z,18.57
2019-03-28T11:30:53.024Z,21.47
2019-03-28T11:33:23.405Z,20.60
2019-03-28T11:35:53.388Z,20.03
2019-03-28T11:38:32.701Z,17.80
2019-03-28T11:40:58.259Z,16.27
2019-03-28T11:43:28.432Z,16.37
2019-03-28T11:45:59.633Z,23.93
2019-03-28T11:48:30.070Z,15.40
2019-03-28T11:51:00.183Z,15.65
2019-03-28T11:53:31.660Z,16.13
2019-03-28T11:56:06.480Z,18.70
2019-03-28T11:58:41.103Z,17.70
2019-03-28T12:01:15.914Z,17.82
2019-03-28T12:03:47.678Z,13.05
2019-03-28T12:06:20.284Z,12.85
2019-03-28T12:08:55.977Z,13.32
2019-03-28T12:11:28.946Z,13.68
2019-03-28T12:14:02.270Z,13.47
2019-03-28T12:16:32.389Z,12.20
2019-03-28T12:19:04.732Z,11.67
2019-03-28T12:21:35.026Z,12.97
2019-03-28T12:24:11.356Z,13.37
2019-03-28T12:26:44.074Z,14.97
2019-03-28T12:29:14.428Z,13.10
2019-03-28T12:31:46.543Z,18.57
2019-03-28T12:34:16.891Z,16.20
2019-03-28T12:36:47.071Z,14.40
2019-03-28T12:39:17.203Z,14.97
2019-03-28T12:41:52.167Z,11.97
2019-03-28T12:44:24.020Z,15.13
2019-03-28T12:46:56.623Z,14.77
2019-03-28T12:49:30.379Z,14.63
2019-03-28T12:52:00.518Z,11.67
2019-03-28T12:54:34.572Z,14.20
2019-03-28T12:57:04.974Z,14.60
2019-03-28T12:59:53.467Z,13.03
2019-03-28T13:02:30.013Z,14.23
2019-03-28T13:04:55.324Z,11.87
2019-03-28T13:07:25.781Z,11.57
2019-03-28T13:09:55.768Z,13.33
2019-03-28T13:12:25.854Z,11.97
2019-03-28T13:14:55.783Z,12.63
2019-03-28T13:17:25.951Z,22.50
2019-03-28T13:19:56.144Z,13.35
2019-03-28T13:22:26.343Z,12.57
2019-03-28T13:25:01.213Z,17.10
2019-03-28T13:27:34.652Z,16.53
2019-03-28T13:30:04.890Z,12.37
2019-03-28T13:32:41.708Z,11.10
2019-03-28T13:35:07.840Z,15.10
2019-03-28T13:37:38.304Z,11.47
2019-03-28T13:40:09.392Z,11.83
2019-03-28T13:42:40.890Z,11.67
2019-03-28T13:45:12.856Z,11.35
2019-03-28T13:47:42.870Z,11.80
2019-03-28T13:50:13.264Z,9.37
2019-03-28T13:52:46.047Z,10.73
2019-03-28T13:55:16.125Z,11.23
2019-03-28T13:57:46.099Z,11.07
2019-03-28T14:00:18.816Z,13.63
2019-03-28T14:02:55.822Z,11.40
2019-03-28T14:05:20.386Z,8.57
2019-03-28T14:07:51.156Z,9.70
2019-03-28T14:10:21.939Z,8.13
2019-03-28T14:12:51.973Z,9.67
2019-03-28T14:15:22.106Z,9.00
2019-03-28T14:17:52.084Z,8.20
2019-03-28T14:20:22.515Z,9.60
2019-03-28T14:22:53.459Z,13.57
2019-03-28T14:25:23.522Z,6.93
2019-03-28T14:27:53.766Z,9.03
2019-03-28T14:30:23.729Z,10.73
2019-03-28T14:32:55.412Z,9.33
2019-03-28T14:35:26.403Z,11.03
2019-03-28T14:37:58.887Z,10.97
2019-03-28T14:40:28.944Z,7.27
2019-03-28T14:43:10.913Z,6.90
2019-03-28T14:45:42.244Z,11.67
2019-03-28T14:48:12.292Z,11.13
2019-03-28T14:50:47.993Z,9.27
2019-03-28T14:53:18.107Z,9.97
2019-03-28T14:55:48.259Z,13.20
2019-03-28T14:58:22.730Z,12.17
2019-03-28T15:00:54.146Z,9.63
2019-03-28T15:03:27.030Z,10.17
2019-03-28T15:05:56.022Z,10.47
2019-03-28T15:08:25.887Z,9.90
2019-03-28T15:10:55.834Z,10.60
2019-03-28T15:13:25.769Z,10.20
2019-03-28T15:15:57.896Z,11.53
2019-03-28T15:18:28.160Z,10.03
2019-03-28T15:20:59.453Z,12.57
2019-03-28T15:23:29.394Z,9.87
2019-03-28T15:26:00.203Z,8.30
2019-03-28T15:28:30.827Z,10.90
2019-03-28T15:31:02.507Z,10.70
2019-03-28T15:33:39.349Z,8.87
2019-03-28T15:36:05.189Z,7.97
2019-03-28T15:38:39.857Z,9.57
2019-03-28T15:41:10.298Z,10.60
2019-03-28T15:43:40.720Z,11.47
2019-03-28T15:46:14.383Z,8.43
2019-03-28T15:48:45.640Z,9.00
2019-03-28T15:51:15.818Z,11.47
2019-03-28T15:53:45.752Z,8.23
2019-03-28T15:56:16.146Z,21.57
2019-03-28T15:58:48.505Z,10.40
2019-03-28T16:01:18.550Z,9.60
2019-03-28T16:03:53.609Z,7.87
2019-03-28T16:06:37.896Z,16.03
2019-03-28T16:09:45.399Z,10.97
2019-03-28T16:12:21.303Z,8.90
2019-03-28T16:14:57.107Z,7.40
2019-03-28T16:17:28.577Z,12.40
2019-03-28T16:20:45.927Z,14.43
2019-03-28T16:23:22.943Z,12.37
2019-03-28T16:25:56.379Z,13.73
2019-03-28T16:28:46.073Z,15.27
2019-03-28T16:32:05.933Z,14.70
2019-03-28T16:34:37.131Z,14.57
2019-03-28T16:37:09.782Z,12.33
2019-03-28T16:39:43.168Z,15.23
2019-03-28T16:42:19.189Z,12.27
2019-03-28T16:44:53.030Z,12.80
2019-03-28T16:47:23.365Z,18.53
2019-03-28T16:49:58.969Z,15.23
2019-03-28T16:52:53.003Z,18.17
2019-03-28T16:55:26.529Z,14.90
2019-03-28T16:57:54.767Z,14.20
2019-03-28T17:00:36.623Z,13.17
2019-03-28T17:03:12.989Z,16.07
2019-03-28T17:05:47.155Z,12.33
2019-03-28T17:08:17.789Z,14.67
2019-03-28T17:10:55.954Z,13.13
2019-03-28T17:13:26.341Z,17.80
2019-03-28T17:16:03.288Z,12.67
2019-03-28T17:18:36.359Z,13.30
2019-03-28T17:21:47.426Z,13.10
2019-03-28T17:25:22.389Z,18.07
2019-03-28T17:28:05.250Z,18.10
2019-03-28T17:30:41.111Z,16.17
2019-03-28T17:33:53.513Z,14.27
2019-03-28T17:36:08.784Z,18.47
2019-03-28T17:38:44.342Z,15.13
2019-03-28T17:41:14.579Z,14.70
2019-03-28T17:43:44.810Z,19.17
2019-03-28T17:46:16.113Z,19.53
2019-03-28T17:48:50.985Z,18.20
2019-03-28T17:51:29.937Z,18.07
2019-03-28T17:54:07.883Z,19.57
2019-03-28T17:56:41.571Z,18.43
2019-03-28T17:59:14.318Z,17.37
2019-03-28T18:01:53.097Z,16.03
2019-03-28T18:04:32.831Z,23.40
2019-03-28T18:07:02.132Z,23.33
2019-03-28T18:09:33.823Z,15.73
2019-03-28T18:12:06.245Z,21.83
2019-03-28T18:14:49.621Z,19.80
2019-03-28T18:17:21.352Z,21.07
2019-03-28T18:19:52.339Z,17.87
2019-03-28T18:22:25.903Z,20.50
2019-03-28T18:25:04.358Z,20.67
2019-03-28T18:27:36.326Z,22.23
2019-03-28T18:30:07.435Z,31.47
2019-03-28T18:33:05.163Z,18.93
2019-03-28T18:35:35.157Z,17.20
2019-03-28T18:38:20.364Z,12.83
2019-03-28T18:41:01.480Z,16.60
2019-03-28T18:43:51.876Z,13.93
2019-03-28T18:46:31.792Z,13.53
2019-03-28T18:49:04.195Z,17.33
2019-03-28T18:51:35.087Z,16.47
2019-03-28T18:54:05.125Z,18.27
2019-03-28T18:56:43.576Z,14.47
2019-03-28T18:59:34.087Z,17.93
2019-03-28T19:02:05.285Z,16.23
2019-03-28T19:04:35.246Z,18.23
2019-03-28T19:07:10.018Z,20.40
2019-03-28T19:09:40.420Z,19.13
2019-03-28T19:12:13.898Z,20.33
2019-03-28T19:14:46.308Z,17.87
2019-03-28T19:17:21.120Z,18.83
2019-03-28T19:19:51.275Z,16.90
2019-03-28T19:22:21.361Z,19.13
2019-03-28T19:24:53.381Z,21.07
2019-03-28T19:27:23.829Z,21.80
2019-03-28T19:29:53.715Z,20.60
2019-03-28T19:32:23.766Z,21.73
2019-03-28T19:34:53.674Z,21.97
2019-03-28T19:37:24.729Z,23.23
2019-03-28T19:39:55.071Z,24.20
2019-03-28T19:42:25.017Z,25.50
2019-03-28T19:44:55.516Z,26.97
2019-03-28T19:47:28.387Z,22.97
2019-03-28T19:49:57.039Z,25.93
2019-03-28T19:52:26.890Z,28.03
2019-03-28T19:54:57.929Z,37.77
2019-03-28T19:57:29.189Z,27.43
2019-03-28T19:59:59.101Z,25.67
2019-03-28T20:02:30.483Z,26.77
2019-03-28T20:05:00.499Z,25.70
2019-03-28T20:07:32.899Z,27.80
2019-03-28T20:10:16.321Z,26.13
2019-03-28T20:12:39.345Z,26.60
2019-03-28T20:15:09.852Z,28.50
2019-03-28T20:17:47.841Z,27.17
2019-03-28T20:20:17.442Z,34.93
2019-03-28T20:22:47.669Z,25.57
2019-03-28T20:25:17.638Z,26.73
2019-03-28T20:27:47.686Z,24.33
2019-03-28T20:30:17.544Z,25.93
2019-03-28T20:32:47.487Z,23.80
2019-03-28T20:35:17.671Z,26.50
2019-03-28T20:37:47.749Z,26.77
2019-03-28T20:40:17.871Z,25.93
2019-03-28T20:42:48.133Z,28.17
2019-03-28T20:45:18.629Z,27.70
2019-03-28T20:47:48.698Z,30.60
2019-03-28T20:50:19.414Z,28.47
2019-03-28T20:52:49.326Z,30.47
2019-03-28T20:55:19.418Z,28.27
2019-03-28T20:57:49.393Z,29.83
2019-03-28T21:00:38.924Z,28.60
2019-03-28T21:03:09.086Z,33.73
2019-03-28T21:05:40.971Z,31.17
2019-03-28T21:08:10.949Z,29.63
2019-03-28T21:10:41.088Z,30.47
2019-03-28T21:13:11.053Z,27.03
2019-03-28T21:15:43.389Z,30.23
2019-03-28T21:18:13.287Z,28.10
2019-03-28T21:20:45.386Z,43.50
2019-03-28T21:23:15.305Z,31.63
2019-03-28T21:25:46.059Z,30.93
2019-03-28T21:28:15.996Z,31.43
2019-03-28T21:30:47.855Z,32.70
2019-03-28T21:33:18.018Z,30.33
2019-03-28T21:35:48.275Z,30.87
2019-03-28T21:38:18.149Z,29.53
2019-03-28T21:40:48.206Z,31.03
2019-03-28T21:43:18.080Z,29.33
2019-03-28T21:45:48.098Z,34.20
2019-03-28T21:48:17.935Z,32.10
2019-03-28T21:50:48.221Z,31.53
2019-03-28T21:53:20.002Z,32.20
2019-03-28T21:55:55.406Z,30.57
2019-03-28T21:58:21.695Z,31.83
2019-03-28T22:00:59.322Z,32.87
2019-03-28T22:03:29.270Z,32.70
2019-03-28T22:06:02.609Z,33.10
2019-03-28T22:08:32.843Z,31.73
2019-03-28T22:11:03.024Z,31.67
2019-03-28T22:13:32.935Z,34.27
2019-03-28T22:16:07.453Z,32.50
2019-03-28T22:18:36.064Z,39.83
2019-03-28T22:21:06.078Z,33.83
2019-03-28T22:23:39.538Z,39.87
2019-03-28T22:26:09.600Z,33.90
2019-03-28T22:28:43.371Z,35.73
2019-03-28T22:31:13.375Z,33.43
2019-03-28T22:33:43.539Z,36.57
2019-03-28T22:36:14.047Z,34.40
2019-03-28T22:38:44.183Z,34.87
2019-03-28T22:41:14.174Z,35.47
2019-03-28T22:43:47.232Z,35.37
2019-03-28T22:46:17.178Z,32.50
2019-03-28T22:48:47.034Z,34.20
2019-03-28T22:51:17.969Z,37.40
2019-03-28T22:53:48.157Z,36.57
2019-03-28T22:56:18.104Z,34.30
2019-03-28T22:58:48.061Z,36.17
2019-03-28T23:01:18.411Z,35.17
2019-03-28T23:03:49.168Z,37.93
2019-03-28T23:06:19.280Z,35.33
2019-03-28T23:08:49.228Z,35.80
2019-03-28T23:11:19.161Z,36.97
2019-03-28T23:13:49.025Z,38.40
2019-03-28T23:16:24.091Z,37.10
2019-03-28T23:18:54.152Z,38.50
2019-03-28T23:21:24.216Z,36.67
2019-03-28T23:23:54.181Z,36.53
2019-03-28T23:26:24.259Z,37.60
2019-03-28T23:28:54.150Z,36.70
2019-03-28T23:31:25.189Z,38.30
2019-03-28T23:33:55.272Z,36.10
2019-03-28T23:36:25.323Z,36.70
2019-03-28T23:38:56.535Z,36.43
2019-03-28T23:41:26.796Z,34.63
2019-03-28T23:43:57.073Z,35.90
2019-03-28T23:46:27.139Z,36.17
2019-03-28T23:48:59.079Z,36.37
2019-03-28T23:51:29.236Z,33.07
2019-03-28T23:53:59.262Z,36.77
2019-03-28T23:56:29.354Z,34.83
2019-03-28T23:58:59.192Z,32.10
